createdAt,value
2023-04-13T00:01:22.474Z,8.75
2023-04-13T00:03:50.940Z,7.75
2023-04-13T00:06:20.193Z,7.25
2023-04-13T00:08:47.763Z,7.75
2023-04-13T00:11:16.415Z,7.00
2023-04-13T00:13:47.381Z,6.50
2023-04-13T00:16:22.448Z,6.00
2023-04-13T00:18:52.576Z,7.75
2023-04-13T00:21:20.759Z,6.00
2023-04-13T00:23:48.183Z,5.50
2023-04-13T00:26:15.795Z,8.25
2023-04-13T00:28:44.915Z,9.25
2023-04-13T00:31:12.493Z,6.00
2023-04-13T00:33:41.712Z,8.50
2023-04-13T00:36:09.950Z,5.75
2023-04-13T00:38:37.917Z,7.75
2023-04-13T00:41:05.725Z,8.25
2023-04-13T00:43:33.771Z,6.75
2023-04-13T00:46:01.356Z,9.00
2023-04-13T00:48:35.181Z,5.50
2023-04-13T00:51:03.926Z,8.25
2023-04-13T00:53:32.017Z,7.25
2023-04-13T00:56:00.537Z,4.50
2023-04-13T00:58:33.441Z,7.50
2023-04-13T01:01:01.009Z,6.75
2023-04-13T01:03:30.877Z,5.33
2023-04-13T01:06:21.319Z,4.75
2023-04-13T01:09:08.416Z,4.75
2023-04-13T01:11:48.695Z,6.50
2023-04-13T01:14:31.734Z,6.00
2023-04-13T01:17:04.272Z,8.50
2023-04-13T01:19:42.702Z,9.50
2023-04-13T01:22:14.487Z,5.25
2023-04-13T01:25:14.716Z,2.75
2023-04-13T01:28:17.977Z,6.75
2023-04-13T01:30:47.667Z,5.75
2023-04-13T01:33:16.285Z,6.50
2023-04-13T01:35:54.750Z,7.00
2023-04-13T01:38:27.085Z,8.00
2023-04-13T01:40:54.544Z,8.50
2023-04-13T01:43:24.243Z,8.00
2023-04-13T01:46:01.274Z,10.00
2023-04-13T01:48:36.136Z,5.50
2023-04-13T01:51:08.687Z,7.00
2023-04-13T01:53:40.345Z,9.00
2023-04-13T01:56:13.167Z,8.25
2023-04-13T01:58:43.969Z,5.50
2023-04-13T02:01:12.876Z,8.50
2023-04-13T02:04:01.874Z,7.00
2023-04-13T02:06:30.142Z,7.25
2023-04-13T02:08:57.684Z,5.00
2023-04-13T02:11:25.986Z,12.00
2023-04-13T02:13:57.668Z,6.50
2023-04-13T02:16:28.437Z,8.75
2023-04-13T02:19:00.307Z,8.00
2023-04-13T02:21:28.376Z,7.50
2023-04-13T02:23:57.526Z,7.75
2023-04-13T02:26:26.398Z,8.50
2023-04-13T02:28:53.848Z,6.75
2023-04-13T02:31:44.239Z,6.25
2023-04-13T02:34:13.080Z,8.00
2023-04-13T02:36:40.592Z,7.25
2023-04-13T02:39:08.560Z,5.50
2023-04-13T02:41:37.913Z,6.00
2023-04-13T02:44:06.415Z,9.25
2023-04-13T02:46:34.255Z,6.50
2023-04-13T02:49:06.013Z,8.50
2023-04-13T02:51:34.031Z,13.75
2023-04-13T02:54:03.424Z,10.75
2023-04-13T02:56:31.974Z,12.00
2023-04-13T02:58:59.907Z,7.25
2023-04-13T03:01:29.665Z,15.00
2023-04-13T03:03:58.587Z,14.75
2023-04-13T03:06:26.108Z,14.00
2023-04-13T03:08:53.925Z,14.25
2023-04-13T03:11:26.387Z,16.25
2023-04-13T03:13:54.298Z,13.50
2023-04-13T03:16:21.844Z,14.25
2023-04-13T03:18:56.226Z,8.75
2023-04-13T03:21:23.781Z,14.25
2023-04-13T03:23:51.337Z,11.75
2023-04-13T03:26:20.234Z,16.75
2023-04-13T03:28:47.828Z,9.00
2023-04-13T03:31:16.080Z,14.25
2023-04-13T03:33:44.511Z,15.50
2023-04-13T03:36:12.454Z,13.50
2023-04-13T03:38:42.736Z,19.00
2023-04-13T03:41:10.558Z,12.75
2023-04-13T03:43:38.199Z,15.00
2023-04-13T03:46:07.999Z,17.75
2023-04-13T03:48:36.041Z,12.75
2023-04-13T03:51:03.572Z,13.00
2023-04-13T03:53:31.528Z,10.75
2023-04-13T03:55:59.137Z,13.75
2023-04-13T03:58:27.401Z,13.50
2023-04-13T04:00:55.899Z,13.50
2023-04-13T04:03:25.900Z,15.75
2023-04-13T04:05:53.657Z,17.00
2023-04-13T04:08:21.258Z,22.25
2023-04-13T04:10:48.937Z,15.00
2023-04-13T04:13:17.225Z,14.50
2023-04-13T04:15:46.562Z,15.75
2023-04-13T04:18:14.055Z,15.50
2023-04-13T04:20:41.754Z,16.25
2023-04-13T04:23:11.224Z,12.25
2023-04-13T04:25:40.652Z,16.50
2023-04-13T04:28:08.746Z,11.00
2023-04-13T04:30:36.174Z,18.00
2023-04-13T04:33:04.873Z,18.00
2023-04-13T04:35:35.809Z,14.00
2023-04-13T04:38:04.510Z,15.25
2023-04-13T04:40:36.165Z,12.75
2023-04-13T04:43:05.029Z,13.25
2023-04-13T04:45:33.268Z,14.50
2023-04-13T04:48:03.354Z,8.75
2023-04-13T04:50:30.973Z,11.00
2023-04-13T04:52:58.393Z,7.00
2023-04-13T04:55:25.856Z,11.25
2023-04-13T04:57:53.439Z,9.00
2023-04-13T05:00:22.000Z,9.25
2023-04-13T05:02:51.334Z,6.75
2023-04-13T05:05:19.279Z,12.25
2023-04-13T05:07:46.853Z,12.50
2023-04-13T05:10:14.703Z,14.25
2023-04-13T05:12:42.799Z,10.25
2023-04-13T05:15:10.591Z,13.25
2023-04-13T05:17:38.754Z,12.75
2023-04-13T05:20:07.348Z,11.25
2023-04-13T05:22:34.908Z,11.00
2023-04-13T05:25:02.260Z,11.75
2023-04-13T05:27:30.066Z,8.00
2023-04-13T05:29:57.429Z,13.75
2023-04-13T05:32:25.011Z,10.75
2023-04-13T05:34:52.787Z,12.75
2023-04-13T05:37:21.562Z,11.50
2023-04-13T05:39:50.184Z,16.00
2023-04-13T05:42:17.628Z,7.00
2023-04-13T05:44:44.998Z,13.00
2023-04-13T05:47:12.796Z,8.50
2023-04-13T05:49:40.445Z,6.25
2023-04-13T05:52:10.630Z,6.75
2023-04-13T05:54:38.251Z,7.00
2023-04-13T05:57:10.165Z,7.00
2023-04-13T05:59:38.531Z,7.25
2023-04-13T06:02:06.299Z,12.50
2023-04-13T06:04:35.156Z,11.25
2023-04-13T06:07:03.133Z,8.75
2023-04-13T06:09:31.152Z,6.50
2023-04-13T06:11:58.564Z,12.25
2023-04-13T06:14:26.365Z,6.00
2023-04-13T06:16:54.360Z,4.25
2023-04-13T06:19:21.974Z,10.00
2023-04-13T06:21:49.465Z,11.00
2023-04-13T06:24:17.660Z,9.00
2023-04-13T06:26:45.162Z,11.00
2023-04-13T06:29:14.221Z,12.25
2023-04-13T06:31:42.131Z,8.00
2023-04-13T06:34:09.701Z,13.50
2023-04-13T06:36:40.677Z,13.00
2023-04-13T06:39:09.494Z,11.67
2023-04-13T06:41:38.009Z,10.33
2023-04-13T06:44:05.727Z,8.33
2023-04-13T06:46:33.638Z,10.00
2023-04-13T06:49:02.897Z,13.00
2023-04-13T06:51:30.760Z,12.33
2023-04-13T06:53:58.125Z,5.67
2023-04-13T06:56:26.134Z,8.33
2023-04-13T06:59:00.820Z,10.33
2023-04-13T07:01:29.898Z,11.33
2023-04-13T07:04:02.626Z,6.33
2023-04-13T07:06:32.224Z,8.00
2023-04-13T07:09:00.007Z,7.33
2023-04-13T07:11:28.483Z,5.33
2023-04-13T07:13:57.466Z,4.00
2023-04-13T07:16:25.001Z,5.00
2023-04-13T07:18:52.483Z,7.00
2023-04-13T07:21:20.422Z,4.50
2023-04-13T07:23:47.897Z,6.00
2023-04-13T07:26:16.315Z,7.67
2023-04-13T07:28:43.959Z,6.75
2023-04-13T07:31:12.197Z,6.00
2023-04-13T07:33:39.704Z,6.25
2023-04-13T07:36:24.253Z,4.00
2023-04-13T07:38:52.553Z,3.50
2023-04-13T07:41:22.698Z,15.50
2023-04-13T07:43:51.267Z,36.33
2023-04-13T07:46:26.439Z,7.00
2023-04-13T07:48:54.325Z,6.00
2023-04-13T07:51:23.374Z,6.00
2023-04-13T07:53:52.732Z,5.00
2023-04-13T07:56:20.304Z,8.00
2023-04-13T07:58:51.036Z,3.00
2023-04-13T08:01:18.877Z,5.00
2023-04-13T08:03:46.402Z,4.25
2023-04-13T08:06:14.095Z,4.50
2023-04-13T08:08:42.002Z,6.25
2023-04-13T08:11:10.141Z,4.75
2023-04-13T08:13:41.099Z,3.00
2023-04-13T08:16:09.647Z,27.25
2023-04-13T08:18:38.550Z,5.25
2023-04-13T08:21:12.590Z,3.50
2023-04-13T08:23:43.208Z,4.50
2023-04-13T08:26:20.671Z,7.25
2023-04-13T08:28:49.212Z,5.00
2023-04-13T08:31:17.448Z,4.00
2023-04-13T08:33:47.030Z,3.00
2023-04-13T08:36:14.402Z,4.00
2023-04-13T08:38:41.998Z,4.75
2023-04-13T08:41:10.629Z,3.00
2023-04-13T08:43:39.332Z,6.75
2023-04-13T08:46:19.613Z,11.67
2023-04-13T08:48:59.075Z,9.67
2023-04-13T08:51:28.831Z,6.00
2023-04-13T08:53:59.337Z,7.00
2023-04-13T08:56:42.145Z,6.00
2023-04-13T08:59:15.497Z,1.33
2023-04-13T09:01:46.479Z,10.67
2023-04-13T09:04:20.225Z,8.00
2023-04-13T09:06:51.166Z,7.00
2023-04-13T09:09:20.683Z,8.67
2023-04-13T09:11:52.114Z,10.00
2023-04-13T09:14:23.095Z,6.00
2023-04-13T09:16:50.942Z,8.00
2023-04-13T09:19:30.436Z,12.00
2023-04-13T09:21:58.615Z,8.33
2023-04-13T09:24:26.130Z,6.00
2023-04-13T09:26:55.897Z,6.00
2023-04-13T09:29:24.847Z,7.33
2023-04-13T09:31:52.408Z,14.67
2023-04-13T09:34:29.658Z,11.50
2023-04-13T09:37:00.968Z,13.00
2023-04-13T09:39:29.504Z,12.33
2023-04-13T09:41:58.390Z,10.00
2023-04-13T09:44:33.198Z,10.25
2023-04-13T09:47:03.110Z,11.67
2023-04-13T09:49:41.142Z,13.33
2023-04-13T09:52:25.256Z,15.00
2023-04-13T09:54:58.866Z,15.50
2023-04-13T09:57:30.553Z,13.50
2023-04-13T10:00:07.189Z,15.00
2023-04-13T10:02:39.657Z,14.33
2023-04-13T10:05:09.791Z,13.33
2023-04-13T10:07:38.251Z,10.33
2023-04-13T10:10:06.794Z,12.00
2023-04-13T10:12:39.134Z,12.00
2023-04-13T10:15:35.721Z,15.00
2023-04-13T10:18:25.037Z,14.33
2023-04-13T10:20:54.100Z,11.00
2023-04-13T10:23:22.037Z,12.67
2023-04-13T10:25:51.637Z,15.33
2023-04-13T10:28:20.702Z,13.33
2023-04-13T10:30:54.093Z,11.00
2023-04-13T10:33:23.066Z,15.00
2023-04-13T10:35:58.897Z,12.00
2023-04-13T10:38:30.093Z,11.67
2023-04-13T10:40:58.746Z,11.33
2023-04-13T10:43:30.996Z,13.67
2023-04-13T10:46:13.882Z,15.00
2023-04-13T10:48:42.375Z,13.25
2023-04-13T10:51:13.235Z,14.25
2023-04-13T10:53:41.177Z,7.00
2023-04-13T10:56:19.283Z,11.67
2023-04-13T10:58:54.270Z,13.75
2023-04-13T11:01:22.754Z,11.75
2023-04-13T11:04:03.958Z,7.25
2023-04-13T11:06:37.939Z,9.00
2023-04-13T11:09:07.256Z,10.50
2023-04-13T11:11:37.365Z,9.00
2023-04-13T11:14:05.102Z,10.00
2023-04-13T11:16:46.210Z,9.00
2023-04-13T11:19:13.709Z,10.00
2023-04-13T11:21:44.836Z,10.50
2023-04-13T11:24:12.581Z,10.00
2023-04-13T11:26:41.658Z,8.00
2023-04-13T11:29:19.162Z,13.75
2023-04-13T11:31:47.218Z,13.33
2023-04-13T11:34:25.861Z,19.33
2023-04-13T11:37:05.240Z,14.75
2023-04-13T11:39:36.330Z,15.67
2023-04-13T11:42:06.134Z,15.33
2023-04-13T11:44:37.646Z,13.33
2023-04-13T11:47:06.607Z,18.00
2023-04-13T11:49:41.305Z,12.00
2023-04-13T11:52:08.898Z,14.67
2023-04-13T11:54:36.436Z,18.67
2023-04-13T11:57:04.047Z,14.33
2023-04-13T11:59:36.428Z,16.00
2023-04-13T12:02:10.632Z,19.67
2023-04-13T12:04:49.234Z,15.00
2023-04-13T12:07:18.351Z,17.33
2023-04-13T12:15:13.760Z,21.67
2023-04-13T12:17:58.156Z,21.00
2023-04-13T12:20:39.901Z,25.67
2023-04-13T12:23:24.785Z,23.33
2023-04-13T12:26:00.081Z,16.00
2023-04-13T12:28:33.654Z,17.25
2023-04-13T12:31:10.117Z,22.25
2023-04-13T12:33:40.470Z,23.75
2023-04-13T12:36:11.417Z,20.75
2023-04-13T12:38:40.193Z,21.25
2023-04-13T12:41:11.034Z,27.67
2023-04-13T12:43:38.542Z,27.00
2023-04-13T12:46:06.074Z,34.67
2023-04-13T12:48:33.460Z,21.50
2023-04-13T12:51:03.293Z,27.00
2023-04-13T12:53:31.166Z,21.50
2023-04-13T12:55:58.517Z,8.25
2023-04-13T12:58:26.680Z,17.25
2023-04-13T13:00:54.334Z,25.50
2023-04-13T13:03:38.581Z,18.00
2023-04-13T13:06:08.258Z,22.50
2023-04-13T13:08:38.430Z,21.25
2023-04-13T13:11:08.510Z,25.75
2023-04-13T13:13:37.787Z,24.50
2023-04-13T13:16:05.591Z,18.00
2023-04-13T13:18:50.277Z,18.75
2023-04-13T13:21:19.547Z,17.50
2023-04-13T13:23:47.027Z,20.00
2023-04-13T13:28:46.285Z,24.50
2023-04-13T13:31:13.672Z,21.00
2023-04-13T13:33:42.838Z,16.25
2023-04-13T13:36:10.990Z,15.75
2023-04-13T13:38:38.372Z,14.50
2023-04-13T13:41:06.642Z,27.75
2023-04-13T13:43:34.116Z,24.00
2023-04-13T13:46:05.966Z,16.50
2023-04-13T13:48:33.922Z,18.75
2023-04-13T13:51:02.135Z,19.50
2023-04-13T13:53:31.894Z,17.25
2023-04-13T13:55:59.353Z,12.75
2023-04-13T13:58:27.547Z,14.50
2023-04-13T14:00:56.040Z,21.00
2023-04-13T14:03:25.287Z,15.00
2023-04-13T14:05:52.933Z,19.75
2023-04-13T14:08:20.845Z,14.25
2023-04-13T14:10:50.004Z,16.25
2023-04-13T14:13:17.818Z,15.50
2023-04-13T14:15:47.442Z,15.75
2023-04-13T14:18:17.073Z,14.00
2023-04-13T14:20:44.618Z,13.50
2023-04-13T14:23:12.359Z,18.00
2023-04-13T14:25:41.377Z,12.50
2023-04-13T14:28:11.302Z,19.25
2023-04-13T14:30:41.813Z,19.00
2023-04-13T14:33:13.690Z,19.00
2023-04-13T14:35:41.628Z,20.25
2023-04-13T14:38:09.817Z,14.50
2023-04-13T14:40:37.423Z,17.00
2023-04-13T14:43:04.952Z,19.75
2023-04-13T14:45:32.849Z,23.75
2023-04-13T14:48:00.308Z,22.50
2023-04-13T14:50:29.060Z,18.75
2023-04-13T14:52:56.648Z,24.75
2023-04-13T14:55:24.448Z,24.00
2023-04-13T14:57:52.036Z,27.75
2023-04-13T15:00:26.398Z,20.75
2023-04-13T15:03:14.125Z,27.67
2023-04-13T15:05:47.499Z,36.00
2023-04-13T15:08:19.744Z,35.33
2023-04-13T15:10:47.200Z,31.00
2023-04-13T15:13:18.675Z,33.67
2023-04-13T15:15:48.331Z,65.75
2023-04-13T15:18:15.942Z,41.75
2023-04-13T15:20:43.694Z,49.00
2023-04-13T15:23:12.067Z,48.00
2023-04-13T15:25:41.641Z,46.67
2023-04-13T15:28:10.601Z,40.75
2023-04-13T15:30:38.998Z,47.00
2023-04-13T15:33:06.826Z,33.33
2023-04-13T15:35:35.656Z,28.67
2023-04-13T15:38:04.461Z,54.50
2023-04-13T15:40:33.981Z,32.67
2023-04-13T15:43:03.281Z,26.67
2023-04-13T15:45:31.409Z,40.33
2023-04-13T15:47:59.952Z,51.25
2023-04-13T15:50:28.211Z,49.75
2023-04-13T15:52:57.183Z,35.67
2023-04-13T15:55:25.359Z,34.33
2023-04-13T15:57:53.970Z,26.67
2023-04-13T16:00:22.178Z,27.33
2023-04-13T16:02:50.433Z,38.33
2023-04-13T16:05:18.868Z,18.00
2023-04-13T16:07:52.732Z,12.25
2023-04-13T16:10:20.890Z,22.50
2023-04-13T16:12:50.382Z,16.75
2023-04-13T16:15:19.476Z,22.50
2023-04-13T16:17:56.935Z,17.50
2023-04-13T16:20:28.515Z,18.25
2023-04-13T16:22:59.461Z,17.50
2023-04-13T16:25:27.486Z,17.25
2023-04-13T16:27:55.652Z,17.50
2023-04-13T16:30:23.785Z,16.50
2023-04-13T16:32:52.244Z,11.00
2023-04-13T16:35:19.763Z,19.75
2023-04-13T16:37:47.137Z,19.67
2023-04-13T16:40:19.554Z,20.50
2023-04-13T16:42:48.862Z,22.25
2023-04-13T16:45:16.301Z,17.33
2023-04-13T16:47:44.245Z,15.00
2023-04-13T16:50:12.720Z,21.00
2023-04-13T16:52:40.701Z,37.75
2023-04-13T16:55:19.478Z,46.25
2023-04-13T16:57:47.256Z,38.25
2023-04-13T17:00:18.278Z,27.50
2023-04-13T17:02:47.920Z,31.25
2023-04-13T17:05:16.240Z,23.33
2023-04-13T17:07:47.607Z,22.00
2023-04-13T17:10:18.550Z,31.33
2023-04-13T17:12:48.253Z,22.00
2023-04-13T17:15:18.499Z,22.00
2023-04-13T17:17:47.248Z,25.00
2023-04-13T17:20:17.049Z,25.00
2023-04-13T17:22:46.181Z,25.00
2023-04-13T17:25:16.490Z,24.67
2023-04-13T17:27:44.313Z,28.00
2023-04-13T17:30:13.602Z,24.67
2023-04-13T17:32:57.751Z,32.67
2023-04-13T17:35:27.256Z,75.75
2023-04-13T17:37:54.615Z,72.50
2023-04-13T17:40:25.757Z,71.50
2023-04-13T17:42:53.198Z,60.50
2023-04-13T17:45:20.843Z,19.33
2023-04-13T17:47:49.484Z,14.33
2023-04-13T17:50:17.420Z,15.00
2023-04-13T17:52:44.956Z,32.50
2023-04-13T17:55:16.385Z,34.50
2023-04-13T17:57:45.111Z,40.00
2023-04-13T18:00:13.259Z,26.67
2023-04-13T18:02:58.530Z,23.00
2023-04-13T18:05:27.819Z,27.67
2023-04-13T18:07:55.347Z,23.67
2023-04-13T18:10:22.778Z,21.00
2023-04-13T18:12:53.748Z,16.33
2023-04-13T18:15:21.261Z,21.33
2023-04-13T18:17:48.759Z,21.33
2023-04-13T18:20:16.227Z,15.00
2023-04-13T18:22:43.627Z,22.00
2023-04-13T18:25:11.412Z,21.00
2023-04-13T18:27:38.892Z,23.67
2023-04-13T18:30:08.772Z,25.33
2023-04-13T18:32:38.209Z,27.67
2023-04-13T18:35:06.321Z,22.00
2023-04-13T18:37:39.442Z,17.67
2023-04-13T18:40:08.529Z,25.00
2023-04-13T18:42:38.414Z,27.33
2023-04-13T18:45:06.944Z,26.75
2023-04-13T18:47:35.362Z,33.25
2023-04-13T18:50:03.054Z,43.50
2023-04-13T18:52:31.124Z,38.75
2023-04-13T18:54:59.101Z,30.75
2023-04-13T18:57:30.217Z,26.00
2023-04-13T18:59:58.846Z,35.00
2023-04-13T19:02:26.391Z,30.75
2023-04-13T19:04:54.251Z,25.75
2023-04-13T19:07:21.794Z,26.75
2023-04-13T19:09:49.774Z,17.75
2023-04-13T19:12:17.294Z,24.25
2023-04-13T19:14:48.775Z,29.00
2023-04-13T19:17:21.058Z,27.75
2023-04-13T19:19:49.147Z,26.00
2023-04-13T19:22:16.612Z,23.25
2023-04-13T19:24:46.413Z,26.75
2023-04-13T19:27:14.152Z,23.33
2023-04-13T19:29:41.760Z,30.00
2023-04-13T19:32:11.815Z,33.50
2023-04-13T19:34:39.841Z,34.75
2023-04-13T19:37:07.317Z,38.00
2023-04-13T19:39:35.198Z,27.25
2023-04-13T19:42:02.724Z,35.50
2023-04-13T19:44:30.524Z,40.50
2023-04-13T19:47:02.017Z,31.00
2023-04-13T19:49:29.866Z,36.75
2023-04-13T19:51:57.273Z,34.50
2023-04-13T19:54:29.172Z,31.25
2023-04-13T19:56:56.753Z,39.00
2023-04-13T19:59:24.142Z,25.00
2023-04-13T20:01:52.185Z,34.75
2023-04-13T20:04:20.709Z,31.00
2023-04-13T20:06:48.138Z,36.25
2023-04-13T20:09:15.726Z,43.75
2023-04-13T20:11:52.626Z,40.50
2023-04-13T20:14:21.148Z,25.50
2023-04-13T20:16:48.735Z,38.50
2023-04-13T20:19:16.387Z,45.25
2023-04-13T20:21:46.790Z,48.75
2023-04-13T20:24:14.355Z,48.75
2023-04-13T20:26:43.659Z,46.25
2023-04-13T20:29:11.330Z,49.25
2023-04-13T20:31:39.075Z,50.25
2023-04-13T20:34:09.778Z,48.25
2023-04-13T20:36:37.399Z,48.25
2023-04-13T20:39:09.580Z,54.50
2023-04-13T20:41:39.001Z,51.75
2023-04-13T20:44:09.969Z,55.00
2023-04-13T20:46:42.009Z,44.50
2023-04-13T20:49:11.949Z,50.50
2023-04-13T20:51:39.805Z,51.00
2023-04-13T20:54:07.478Z,48.75
2023-04-13T20:56:38.451Z,51.00
2023-04-13T20:59:07.567Z,45.50
2023-04-13T21:01:35.533Z,49.25
2023-04-13T21:04:03.851Z,49.75
2023-04-13T21:06:31.983Z,51.25
2023-04-13T21:08:59.572Z,49.75
2023-04-13T21:11:27.521Z,38.25
2023-04-13T21:13:55.006Z,49.00
2023-04-13T21:16:25.840Z,46.50
2023-04-13T21:18:54.462Z,48.25
2023-04-13T21:21:23.468Z,43.25
2023-04-13T21:23:51.295Z,45.25
2023-04-13T21:26:18.889Z,47.75
2023-04-13T21:28:47.842Z,49.00
2023-04-13T21:31:15.645Z,45.75
2023-04-13T21:33:43.238Z,41.75
2023-04-13T21:38:41.956Z,49.00
2023-04-13T21:41:16.029Z,46.75
2023-04-13T21:43:43.926Z,46.00
2023-04-13T21:46:13.776Z,39.25
2023-04-13T21:48:41.937Z,40.25
2023-04-13T21:51:09.895Z,39.50
2023-04-13T21:53:39.064Z,45.00
2023-04-13T21:56:07.056Z,44.25
2023-04-13T21:58:39.573Z,46.25
2023-04-13T22:01:07.455Z,50.00
2023-04-13T22:03:37.540Z,35.75
2023-04-13T22:06:07.140Z,37.50
2023-04-13T22:08:36.169Z,44.00
2023-04-13T22:11:04.087Z,43.75
2023-04-13T22:13:32.200Z,39.50
2023-04-13T22:16:02.732Z,35.00
2023-04-13T22:18:30.314Z,34.25
2023-04-13T22:20:59.863Z,30.25
2023-04-13T22:23:29.546Z,34.75
2023-04-13T22:26:03.891Z,21.75
2023-04-13T22:28:32.059Z,23.25
2023-04-13T22:31:06.996Z,23.33
2023-04-13T22:33:40.424Z,22.33
2023-04-13T22:36:17.666Z,17.67
2023-04-13T22:38:48.992Z,21.67
2023-04-13T22:41:17.661Z,12.33
2023-04-13T22:43:45.068Z,19.33
2023-04-13T22:46:12.506Z,19.33
2023-04-13T22:48:40.918Z,20.67
2023-04-13T22:51:08.519Z,22.00
2023-04-13T22:53:36.034Z,18.67
2023-04-13T22:56:05.637Z,19.33
2023-04-13T22:58:33.099Z,15.33
2023-04-13T23:01:01.468Z,21.33
2023-04-13T23:03:30.239Z,18.67
2023-04-13T23:05:59.002Z,11.67
2023-04-13T23:08:26.394Z,12.00
2023-04-13T23:10:56.285Z,10.00
2023-04-13T23:13:24.371Z,8.00
2023-04-13T23:15:59.446Z,7.33
2023-04-13T23:18:28.135Z,11.50
2023-04-13T23:20:56.027Z,10.75
2023-04-13T23:23:23.806Z,11.67
2023-04-13T23:25:51.525Z,10.67
2023-04-13T23:28:19.369Z,12.33
2023-04-13T23:30:50.640Z,19.00
2023-04-13T23:33:18.398Z,10.00
2023-04-13T23:35:52.453Z,20.00
2023-04-13T23:38:22.235Z,16.00
2023-04-13T23:40:50.304Z,13.67
2023-04-13T23:43:17.644Z,13.33
2023-04-13T23:45:45.054Z,11.25
2023-04-13T23:48:12.874Z,4.50
2023-04-13T23:50:40.281Z,13.00
2023-04-13T23:53:08.022Z,11.00
2023-04-13T23:55:35.542Z,11.67
2023-04-13T23:58:13.018Z,9.00
